sensor_id;sensor_type;location;lat;lon;timestamp;P1;durP1;ratioP1;P2;durP2;ratioP2
12145;SDS011;6136;47.032;15.398;2023-02-02T00:01:24;5.57;;;2.67;;
12145;SDS011;6136;47.032;15.398;2023-02-02T00:03:53;4.03;;;2.80;;
12145;SDS011;6136;47.032;15.398;2023-02-02T00:06:22;4.43;;;2.73;;
12145;SDS011;6136;47.032;15.398;2023-02-02T00:08:54;3.93;;;2.60;;
12145;SDS011;6136;47.032;15.398;2023-02-02T00:11:23;3.23;;;2.47;;
12145;SDS011;6136;47.032;15.398;2023-02-02T00:13:52;5.80;;;3.00;;
12145;SDS011;6136;47.032;15.398;2023-02-02T00:19:09;6.40;;;2.90;;
12145;SDS011;6136;47.032;15.398;2023-02-02T00:21:38;2.40;;;1.97;;
12145;SDS011;6136;47.032;15.398;2023-02-02T00:24:09;1.83;;;1.40;;
12145;SDS011;6136;47.032;15.398;2023-02-02T00:26:40;2.47;;;1.83;;
12145;SDS011;6136;47.032;15.398;2023-02-02T00:29:11;2.30;;;1.80;;
12145;SDS011;6136;47.032;15.398;2023-02-02T00:31:46;2.00;;;1.80;;
12145;SDS011;6136;47.032;15.398;2023-02-02T00:34:14;1.50;;;1.40;;
12145;SDS011;6136;47.032;15.398;2023-02-02T00:36:45;1.70;;;1.60;;
12145;SDS011;6136;47.032;15.398;2023-02-02T00:39:16;2.17;;;1.97;;
12145;SDS011;6136;47.032;15.398;2023-02-02T00:41:46;1.67;;;1.57;;
12145;SDS011;6136;47.032;15.398;2023-02-02T00:44:15;2.03;;;1.80;;
12145;SDS011;6136;47.032;15.398;2023-02-02T00:47:00;1.67;;;1.50;;
12145;SDS011;6136;47.032;15.398;2023-02-02T00:49:29;1.93;;;1.67;;
12145;SDS011;6136;47.032;15.398;2023-02-02T00:51:57;2.57;;;2.00;;
12145;SDS011;6136;47.032;15.398;2023-02-02T00:54:27;1.57;;;1.47;;
12145;SDS011;6136;47.032;15.398;2023-02-02T00:56:55;4.00;;;2.10;;
12145;SDS011;6136;47.032;15.398;2023-02-02T00:59:23;2.23;;;1.70;;
12145;SDS011;6136;47.032;15.398;2023-02-02T01:01:51;2.13;;;1.80;;
12145;SDS011;6136;47.032;15.398;2023-02-02T01:04:20;2.33;;;1.67;;
12145;SDS011;6136;47.032;15.398;2023-02-02T01:06:48;1.30;;;1.20;;
12145;SDS011;6136;47.032;15.398;2023-02-02T01:09:16;1.30;;;1.20;;
12145;SDS011;6136;47.032;15.398;2023-02-02T01:11:46;1.10;;;1.00;;
12145;SDS011;6136;47.032;15.398;2023-02-02T01:14:14;3.60;;;1.60;;
12145;SDS011;6136;47.032;15.398;2023-02-02T01:16:42;1.40;;;1.30;;
12145;SDS011;6136;47.032;15.398;2023-02-02T01:19:11;2.70;;;1.90;;
12145;SDS011;6136;47.032;15.398;2023-02-02T01:21:40;1.93;;;1.50;;
12145;SDS011;6136;47.032;15.398;2023-02-02T01:24:08;1.37;;;1.27;;
12145;SDS011;6136;47.032;15.398;2023-02-02T01:26:36;1.10;;;1.10;;
12145;SDS011;6136;47.032;15.398;2023-02-02T01:29:06;1.00;;;1.00;;
12145;SDS011;6136;47.032;15.398;2023-02-02T01:31:34;1.57;;;1.13;;
12145;SDS011;6136;47.032;15.398;2023-02-02T01:34:02;1.00;;;1.00;;
12145;SDS011;6136;47.032;15.398;2023-02-02T01:36:30;0.90;;;0.90;;
12145;SDS011;6136;47.032;15.398;2023-02-02T01:38:59;0.90;;;0.90;;
12145;SDS011;6136;47.032;15.398;2023-02-02T01:41:27;0.90;;;0.90;;
12145;SDS011;6136;47.032;15.398;2023-02-02T01:43:56;0.93;;;0.93;;
12145;SDS011;6136;47.032;15.398;2023-02-02T01:46:28;2.87;;;1.07;;
12145;SDS011;6136;47.032;15.398;2023-02-02T01:48:59;0.90;;;0.90;;
12145;SDS011;6136;47.032;15.398;2023-02-02T01:51:33;0.83;;;0.83;;
12145;SDS011;6136;47.032;15.398;2023-02-02T01:54:05;0.80;;;0.80;;
12145;SDS011;6136;47.032;15.398;2023-02-02T01:56:38;0.60;;;0.60;;
12145;SDS011;6136;47.032;15.398;2023-02-02T01:59:10;0.83;;;0.83;;
12145;SDS011;6136;47.032;15.398;2023-02-02T02:01:44;0.80;;;0.80;;
12145;SDS011;6136;47.032;15.398;2023-02-02T02:04:15;0.80;;;0.80;;
12145;SDS011;6136;47.032;15.398;2023-02-02T02:06:43;1.23;;;0.90;;
12145;SDS011;6136;47.032;15.398;2023-02-02T02:09:14;1.13;;;0.93;;
12145;SDS011;6136;47.032;15.398;2023-02-02T02:11:42;0.50;;;0.50;;
12145;SDS011;6136;47.032;15.398;2023-02-02T02:14:10;0.90;;;0.90;;
12145;SDS011;6136;47.032;15.398;2023-02-02T02:17:07;1.17;;;1.00;;
12145;SDS011;6136;47.032;15.398;2023-02-02T02:20:08;0.70;;;0.70;;
12145;SDS011;6136;47.032;15.398;2023-02-02T02:27:06;0.70;;;0.70;;
12145;SDS011;6136;47.032;15.398;2023-02-02T02:30:02;1.37;;;0.70;;
12145;SDS011;6136;47.032;15.398;2023-02-02T02:32:46;1.67;;;1.00;;
12145;SDS011;6136;47.032;15.398;2023-02-02T02:35:20;0.70;;;0.70;;
12145;SDS011;6136;47.032;15.398;2023-02-02T02:37:59;2.40;;;1.10;;
12145;SDS011;6136;47.032;15.398;2023-02-02T02:40:36;1.27;;;0.87;;
12145;SDS011;6136;47.032;15.398;2023-02-02T02:43:10;0.93;;;0.90;;
12145;SDS011;6136;47.032;15.398;2023-02-02T02:45:44;2.43;;;1.10;;
12145;SDS011;6136;47.032;15.398;2023-02-02T02:48:15;0.87;;;0.87;;
12145;SDS011;6136;47.032;15.398;2023-02-02T02:50:43;5.50;;;2.40;;
12145;SDS011;6136;47.032;15.398;2023-02-02T02:53:13;0.80;;;0.70;;
12145;SDS011;6136;47.032;15.398;2023-02-02T02:55:45;1.30;;;0.90;;
12145;SDS011;6136;47.032;15.398;2023-02-02T02:58:22;1.23;;;1.03;;
12145;SDS011;6136;47.032;15.398;2023-02-02T03:00:58;0.90;;;0.90;;
12145;SDS011;6136;47.032;15.398;2023-02-02T03:03:47;2.60;;;1.03;;
12145;SDS011;6136;47.032;15.398;2023-02-02T03:06:31;0.70;;;0.70;;
12145;SDS011;6136;47.032;15.398;2023-02-02T03:09:08;1.60;;;1.50;;
12145;SDS011;6136;47.032;15.398;2023-02-02T03:11:39;0.90;;;0.90;;
12145;SDS011;6136;47.032;15.398;2023-02-02T03:14:08;1.97;;;1.30;;
12145;SDS011;6136;47.032;15.398;2023-02-02T03:16:36;0.90;;;0.90;;
12145;SDS011;6136;47.032;15.398;2023-02-02T03:19:05;1.20;;;1.10;;
12145;SDS011;6136;47.032;15.398;2023-02-02T03:21:34;0.90;;;0.90;;
12145;SDS011;6136;47.032;15.398;2023-02-02T03:24:03;0.80;;;0.80;;
12145;SDS011;6136;47.032;15.398;2023-02-02T03:26:31;0.97;;;0.97;;
12145;SDS011;6136;47.032;15.398;2023-02-02T03:29:00;2.50;;;1.33;;
12145;SDS011;6136;47.032;15.398;2023-02-02T03:31:28;1.20;;;1.10;;
12145;SDS011;6136;47.032;15.398;2023-02-02T03:33:57;1.97;;;1.40;;
12145;SDS011;6136;47.032;15.398;2023-02-02T03:36:26;0.90;;;0.90;;
12145;SDS011;6136;47.032;15.398;2023-02-02T03:38:54;0.80;;;0.80;;
12145;SDS011;6136;47.032;15.398;2023-02-02T03:41:23;1.13;;;0.80;;
12145;SDS011;6136;47.032;15.398;2023-02-02T03:43:51;1.17;;;1.07;;
12145;SDS011;6136;47.032;15.398;2023-02-02T03:46:20;0.60;;;0.60;;
12145;SDS011;6136;47.032;15.398;2023-02-02T03:48:48;1.07;;;0.80;;
12145;SDS011;6136;47.032;15.398;2023-02-02T03:51:16;1.37;;;1.20;;
12145;SDS011;6136;47.032;15.398;2023-02-02T03:53:46;0.70;;;0.70;;
12145;SDS011;6136;47.032;15.398;2023-02-02T03:56:14;1.50;;;1.00;;
12145;SDS011;6136;47.032;15.398;2023-02-02T03:58:44;1.63;;;1.10;;
12145;SDS011;6136;47.032;15.398;2023-02-02T04:01:13;1.37;;;1.00;;
12145;SDS011;6136;47.032;15.398;2023-02-02T04:03:41;0.80;;;0.80;;
12145;SDS011;6136;47.032;15.398;2023-02-02T04:06:11;1.30;;;1.20;;
12145;SDS011;6136;47.032;15.398;2023-02-02T04:08:39;0.90;;;0.90;;
12145;SDS011;6136;47.032;15.398;2023-02-02T04:11:09;0.73;;;0.73;;
12145;SDS011;6136;47.032;15.398;2023-02-02T04:13:38;0.70;;;0.70;;
12145;SDS011;6136;47.032;15.398;2023-02-02T04:16:09;2.47;;;1.00;;
12145;SDS011;6136;47.032;15.398;2023-02-02T04:18:37;0.70;;;0.70;;
12145;SDS011;6136;47.032;15.398;2023-02-02T04:21:06;0.87;;;0.87;;
12145;SDS011;6136;47.032;15.398;2023-02-02T04:23:35;0.70;;;0.70;;
12145;SDS011;6136;47.032;15.398;2023-02-02T04:26:03;3.60;;;0.90;;
12145;SDS011;6136;47.032;15.398;2023-02-02T04:31:03;2.33;;;1.03;;
12145;SDS011;6136;47.032;15.398;2023-02-02T04:33:32;0.87;;;0.87;;
12145;SDS011;6136;47.032;15.398;2023-02-02T04:36:01;0.73;;;0.73;;
12145;SDS011;6136;47.032;15.398;2023-02-02T04:38:30;0.70;;;0.70;;
12145;SDS011;6136;47.032;15.398;2023-02-02T04:40:58;0.80;;;0.80;;
12145;SDS011;6136;47.032;15.398;2023-02-02T04:43:26;0.87;;;0.87;;
12145;SDS011;6136;47.032;15.398;2023-02-02T04:45:55;0.90;;;0.90;;
12145;SDS011;6136;47.032;15.398;2023-02-02T04:48:24;0.83;;;0.83;;
12145;SDS011;6136;47.032;15.398;2023-02-02T04:50:56;0.77;;;0.77;;
12145;SDS011;6136;47.032;15.398;2023-02-02T04:53:26;1.37;;;0.70;;
12145;SDS011;6136;47.032;15.398;2023-02-02T04:55:55;0.60;;;0.60;;
12145;SDS011;6136;47.032;15.398;2023-02-02T04:58:23;0.80;;;0.80;;
12145;SDS011;6136;47.032;15.398;2023-02-02T05:00:54;0.80;;;0.80;;
12145;SDS011;6136;47.032;15.398;2023-02-02T05:03:23;0.70;;;0.70;;
12145;SDS011;6136;47.032;15.398;2023-02-02T05:06:00;0.60;;;0.60;;
12145;SDS011;6136;47.032;15.398;2023-02-02T05:08:29;0.80;;;0.80;;
12145;SDS011;6136;47.032;15.398;2023-02-02T05:10:57;0.73;;;0.73;;
12145;SDS011;6136;47.032;15.398;2023-02-02T05:13:25;0.70;;;0.70;;
12145;SDS011;6136;47.032;15.398;2023-02-02T05:15:53;0.80;;;0.80;;
12145;SDS011;6136;47.032;15.398;2023-02-02T05:18:23;0.70;;;0.70;;
12145;SDS011;6136;47.032;15.398;2023-02-02T05:20:52;0.80;;;0.80;;
12145;SDS011;6136;47.032;15.398;2023-02-02T05:23:20;0.80;;;0.80;;
12145;SDS011;6136;47.032;15.398;2023-02-02T05:25:50;0.70;;;0.70;;
12145;SDS011;6136;47.032;15.398;2023-02-02T05:28:19;0.70;;;0.70;;
12145;SDS011;6136;47.032;15.398;2023-02-02T05:30:47;0.70;;;0.70;;
12145;SDS011;6136;47.032;15.398;2023-02-02T05:33:16;0.70;;;0.70;;
12145;SDS011;6136;47.032;15.398;2023-02-02T05:35:46;0.73;;;0.73;;
12145;SDS011;6136;47.032;15.398;2023-02-02T05:38:15;1.00;;;1.00;;
12145;SDS011;6136;47.032;15.398;2023-02-02T05:40:43;0.70;;;0.70;;
12145;SDS011;6136;47.032;15.398;2023-02-02T05:43:12;0.77;;;0.77;;
12145;SDS011;6136;47.032;15.398;2023-02-02T05:45:40;0.80;;;0.80;;
12145;SDS011;6136;47.032;15.398;2023-02-02T05:48:08;1.00;;;1.00;;
12145;SDS011;6136;47.032;15.398;2023-02-02T05:50:39;0.73;;;0.73;;
12145;SDS011;6136;47.032;15.398;2023-02-02T05:53:10;1.10;;;1.03;;
12145;SDS011;6136;47.032;15.398;2023-02-02T05:55:40;1.07;;;1.07;;
12145;SDS011;6136;47.032;15.398;2023-02-02T05:58:08;2.93;;;2.20;;
12145;SDS011;6136;47.032;15.398;2023-02-02T06:00:36;3.83;;;2.23;;
12145;SDS011;6136;47.032;15.398;2023-02-02T06:03:04;1.60;;;1.30;;
12145;SDS011;6136;47.032;15.398;2023-02-02T06:05:33;0.97;;;0.97;;
12145;SDS011;6136;47.032;15.398;2023-02-02T06:08:01;0.80;;;0.80;;
12145;SDS011;6136;47.032;15.398;2023-02-02T06:10:30;0.87;;;0.87;;
12145;SDS011;6136;47.032;15.398;2023-02-02T06:12:58;0.80;;;0.80;;
12145;SDS011;6136;47.032;15.398;2023-02-02T06:15:27;0.80;;;0.80;;
12145;SDS011;6136;47.032;15.398;2023-02-02T06:17:55;0.90;;;0.90;;
12145;SDS011;6136;47.032;15.398;2023-02-02T06:20:24;0.80;;;0.80;;
12145;SDS011;6136;47.032;15.398;2023-02-02T06:22:52;0.90;;;0.90;;
12145;SDS011;6136;47.032;15.398;2023-02-02T06:25:20;1.13;;;0.80;;
12145;SDS011;6136;47.032;15.398;2023-02-02T06:27:51;0.70;;;0.70;;
12145;SDS011;6136;47.032;15.398;2023-02-02T06:30:22;0.90;;;0.90;;
12145;SDS011;6136;47.032;15.398;2023-02-02T06:32:50;2.23;;;1.83;;
12145;SDS011;6136;47.032;15.398;2023-02-02T06:35:18;1.27;;;1.17;;
12145;SDS011;6136;47.032;15.398;2023-02-02T06:37:46;1.10;;;1.10;;
12145;SDS011;6136;47.032;15.398;2023-02-02T06:40:15;1.10;;;1.10;;
12145;SDS011;6136;47.032;15.398;2023-02-02T06:42:43;1.40;;;1.30;;
12145;SDS011;6136;47.032;15.398;2023-02-02T06:45:13;1.40;;;1.30;;
12145;SDS011;6136;47.032;15.398;2023-02-02T06:47:41;0.90;;;0.90;;
12145;SDS011;6136;47.032;15.398;2023-02-02T06:50:09;2.30;;;1.20;;
12145;SDS011;6136;47.032;15.398;2023-02-02T06:52:38;1.10;;;1.10;;
12145;SDS011;6136;47.032;15.398;2023-02-02T06:55:06;1.40;;;1.30;;
12145;SDS011;6136;47.032;15.398;2023-02-02T06:57:35;12.87;;;2.00;;
12145;SDS011;6136;47.032;15.398;2023-02-02T07:00:03;4.83;;;2.77;;
12145;SDS011;6136;47.032;15.398;2023-02-02T07:02:33;4.83;;;2.40;;
12145;SDS011;6136;47.032;15.398;2023-02-02T07:05:02;3.67;;;2.40;;
12145;SDS011;6136;47.032;15.398;2023-02-02T07:07:31;1.70;;;1.60;;
12145;SDS011;6136;47.032;15.398;2023-02-02T07:09:59;6.10;;;3.47;;
12145;SDS011;6136;47.032;15.398;2023-02-02T07:12:27;9.77;;;5.17;;
12145;SDS011;6136;47.032;15.398;2023-02-02T07:14:56;8.57;;;5.20;;
12145;SDS011;6136;47.032;15.398;2023-02-02T07:17:24;7.30;;;4.53;;
12145;SDS011;6136;47.032;15.398;2023-02-02T07:19:54;9.33;;;5.90;;
12145;SDS011;6136;47.032;15.398;2023-02-02T07:22:22;7.27;;;4.20;;
12145;SDS011;6136;47.032;15.398;2023-02-02T07:24:50;4.87;;;2.90;;
12145;SDS011;6136;47.032;15.398;2023-02-02T07:27:18;5.33;;;3.07;;
12145;SDS011;6136;47.032;15.398;2023-02-02T07:29:46;4.00;;;2.50;;
12145;SDS011;6136;47.032;15.398;2023-02-02T07:32:14;4.50;;;2.60;;
12145;SDS011;6136;47.032;15.398;2023-02-02T07:34:43;5.60;;;3.13;;
12145;SDS011;6136;47.032;15.398;2023-02-02T07:37:12;5.23;;;3.40;;
12145;SDS011;6136;47.032;15.398;2023-02-02T07:39:40;5.13;;;3.77;;
12145;SDS011;6136;47.032;15.398;2023-02-02T07:42:09;6.03;;;3.30;;
12145;SDS011;6136;47.032;15.398;2023-02-02T07:44:39;7.67;;;4.50;;
12145;SDS011;6136;47.032;15.398;2023-02-02T07:47:08;6.27;;;5.03;;
12145;SDS011;6136;47.032;15.398;2023-02-02T07:49:36;13.93;;;9.77;;
12145;SDS011;6136;47.032;15.398;2023-02-02T07:52:04;10.13;;;7.57;;
12145;SDS011;6136;47.032;15.398;2023-02-02T07:54:33;9.33;;;5.10;;
12145;SDS011;6136;47.032;15.398;2023-02-02T07:57:02;12.57;;;5.30;;
12145;SDS011;6136;47.032;15.398;2023-02-02T07:59:30;6.13;;;3.97;;
12145;SDS011;6136;47.032;15.398;2023-02-02T08:01:58;7.90;;;4.47;;
12145;SDS011;6136;47.032;15.398;2023-02-02T08:04:26;4.70;;;3.20;;
12145;SDS011;6136;47.032;15.398;2023-02-02T08:06:55;6.73;;;3.53;;
12145;SDS011;6136;47.032;15.398;2023-02-02T08:09:23;5.87;;;3.63;;
12145;SDS011;6136;47.032;15.398;2023-02-02T08:11:52;4.03;;;2.40;;
12145;SDS011;6136;47.032;15.398;2023-02-02T08:14:20;5.50;;;3.53;;
12145;SDS011;6136;47.032;15.398;2023-02-02T08:16:48;3.17;;;2.80;;
12145;SDS011;6136;47.032;15.398;2023-02-02T08:19:17;3.47;;;2.40;;
12145;SDS011;6136;47.032;15.398;2023-02-02T08:21:45;3.83;;;2.67;;
12145;SDS011;6136;47.032;15.398;2023-02-02T08:24:13;3.93;;;2.90;;
12145;SDS011;6136;47.032;15.398;2023-02-02T08:26:41;3.67;;;2.83;;
12145;SDS011;6136;47.032;15.398;2023-02-02T08:29:11;4.67;;;2.63;;
12145;SDS011;6136;47.032;15.398;2023-02-02T08:31:43;4.67;;;2.40;;
12145;SDS011;6136;47.032;15.398;2023-02-02T08:34:11;3.30;;;2.20;;
12145;SDS011;6136;47.032;15.398;2023-02-02T08:36:40;3.47;;;2.67;;
12145;SDS011;6136;47.032;15.398;2023-02-02T08:39:09;4.20;;;2.70;;
12145;SDS011;6136;47.032;15.398;2023-02-02T08:41:39;2.43;;;2.10;;
12145;SDS011;6136;47.032;15.398;2023-02-02T08:44:08;2.43;;;2.23;;
12145;SDS011;6136;47.032;15.398;2023-02-02T08:46:39;4.23;;;3.40;;
12145;SDS011;6136;47.032;15.398;2023-02-02T08:49:08;9.50;;;3.77;;
12145;SDS011;6136;47.032;15.398;2023-02-02T08:51:37;5.50;;;3.93;;
12145;SDS011;6136;47.032;15.398;2023-02-02T08:54:06;6.90;;;3.90;;
12145;SDS011;6136;47.032;15.398;2023-02-02T08:56:34;5.00;;;3.50;;
12145;SDS011;6136;47.032;15.398;2023-02-02T08:59:02;4.97;;;3.13;;
12145;SDS011;6136;47.032;15.398;2023-02-02T09:01:31;4.30;;;3.07;;
12145;SDS011;6136;47.032;15.398;2023-02-02T09:04:03;6.27;;;3.40;;
12145;SDS011;6136;47.032;15.398;2023-02-02T09:06:32;6.70;;;3.23;;
12145;SDS011;6136;47.032;15.398;2023-02-02T09:09:02;4.60;;;2.70;;
12145;SDS011;6136;47.032;15.398;2023-02-02T09:11:32;3.67;;;2.40;;
12145;SDS011;6136;47.032;15.398;2023-02-02T09:14:00;3.53;;;2.00;;
12145;SDS011;6136;47.032;15.398;2023-02-02T09:16:29;2.93;;;2.03;;
12145;SDS011;6136;47.032;15.398;2023-02-02T09:18:57;4.10;;;2.00;;
12145;SDS011;6136;47.032;15.398;2023-02-02T09:21:27;2.27;;;2.00;;
12145;SDS011;6136;47.032;15.398;2023-02-02T09:23:55;2.93;;;2.20;;
12145;SDS011;6136;47.032;15.398;2023-02-02T09:26:24;2.23;;;2.03;;
12145;SDS011;6136;47.032;15.398;2023-02-02T09:28:54;2.90;;;2.10;;
12145;SDS011;6136;47.032;15.398;2023-02-02T09:31:24;4.67;;;2.40;;
12145;SDS011;6136;47.032;15.398;2023-02-02T09:33:53;2.70;;;2.03;;
12145;SDS011;6136;47.032;15.398;2023-02-02T09:36:22;3.77;;;2.00;;
12145;SDS011;6136;47.032;15.398;2023-02-02T09:38:54;2.93;;;2.13;;
12145;SDS011;6136;47.032;15.398;2023-02-02T09:41:26;2.80;;;2.17;;
12145;SDS011;6136;47.032;15.398;2023-02-02T09:44:14;3.37;;;2.27;;
12145;SDS011;6136;47.032;15.398;2023-02-02T09:46:53;18.03;;;2.97;;
12145;SDS011;6136;47.032;15.398;2023-02-02T09:49:27;4.00;;;2.20;;
12145;SDS011;6136;47.032;15.398;2023-02-02T09:52:06;3.17;;;2.63;;
12145;SDS011;6136;47.032;15.398;2023-02-02T09:54:42;4.33;;;2.40;;
12145;SDS011;6136;47.032;15.398;2023-02-02T09:57:13;3.47;;;2.33;;
12145;SDS011;6136;47.032;15.398;2023-02-02T09:59:46;4.43;;;2.73;;
12145;SDS011;6136;47.032;15.398;2023-02-02T10:02:18;4.43;;;2.57;;
12145;SDS011;6136;47.032;15.398;2023-02-02T10:04:50;2.60;;;2.40;;
12145;SDS011;6136;47.032;15.398;2023-02-02T10:07:23;2.93;;;2.53;;
12145;SDS011;6136;47.032;15.398;2023-02-02T10:09:58;3.30;;;2.77;;
12145;SDS011;6136;47.032;15.398;2023-02-02T10:12:31;2.73;;;2.30;;
12145;SDS011;6136;47.032;15.398;2023-02-02T10:15:14;2.67;;;2.47;;
12145;SDS011;6136;47.032;15.398;2023-02-02T10:17:51;2.53;;;2.00;;
12145;SDS011;6136;47.032;15.398;2023-02-02T10:20:29;2.60;;;2.40;;
12145;SDS011;6136;47.032;15.398;2023-02-02T10:23:07;3.57;;;2.40;;
12145;SDS011;6136;47.032;15.398;2023-02-02T10:25:47;2.83;;;2.63;;
12145;SDS011;6136;47.032;15.398;2023-02-02T10:28:29;3.60;;;2.70;;
12145;SDS011;6136;47.032;15.398;2023-02-02T10:31:14;2.33;;;2.13;;
12145;SDS011;6136;47.032;15.398;2023-02-02T10:33:59;3.97;;;2.87;;
12145;SDS011;6136;47.032;15.398;2023-02-02T10:36:37;2.67;;;2.40;;
12145;SDS011;6136;47.032;15.398;2023-02-02T10:39:16;2.43;;;2.17;;
12145;SDS011;6136;47.032;15.398;2023-02-02T10:41:53;4.73;;;2.63;;
12145;SDS011;6136;47.032;15.398;2023-02-02T10:44:32;2.93;;;2.63;;
12145;SDS011;6136;47.032;15.398;2023-02-02T10:47:10;2.10;;;1.90;;
12145;SDS011;6136;47.032;15.398;2023-02-02T10:49:43;2.23;;;2.00;;
12145;SDS011;6136;47.032;15.398;2023-02-02T10:52:13;1.63;;;1.40;;
12145;SDS011;6136;47.032;15.398;2023-02-02T10:54:51;2.50;;;1.70;;
12145;SDS011;6136;47.032;15.398;2023-02-02T10:57:31;1.60;;;1.50;;
12145;SDS011;6136;47.032;15.398;2023-02-02T11:00:14;1.60;;;1.50;;
12145;SDS011;6136;47.032;15.398;2023-02-02T11:02:49;1.80;;;1.70;;
12145;SDS011;6136;47.032;15.398;2023-02-02T11:05:20;1.63;;;1.53;;
12145;SDS011;6136;47.032;15.398;2023-02-02T11:08:11;1.50;;;1.40;;
12145;SDS011;6136;47.032;15.398;2023-02-02T11:10:41;1.50;;;1.40;;
12145;SDS011;6136;47.032;15.398;2023-02-02T11:13:13;1.77;;;1.67;;
12145;SDS011;6136;47.032;15.398;2023-02-02T11:15:46;1.50;;;1.40;;
12145;SDS011;6136;47.032;15.398;2023-02-02T11:18:24;1.87;;;1.70;;
12145;SDS011;6136;47.032;15.398;2023-02-02T11:20:55;1.57;;;1.40;;
12145;SDS011;6136;47.032;15.398;2023-02-02T11:23:25;1.30;;;1.20;;
12145;SDS011;6136;47.032;15.398;2023-02-02T11:25:58;1.50;;;1.40;;
12145;SDS011;6136;47.032;15.398;2023-02-02T11:28:33;1.47;;;1.37;;
12145;SDS011;6136;47.032;15.398;2023-02-02T11:31:02;1.67;;;1.50;;
12145;SDS011;6136;47.032;15.398;2023-02-02T11:33:32;1.70;;;1.60;;
12145;SDS011;6136;47.032;15.398;2023-02-02T11:36:02;1.80;;;1.70;;
12145;SDS011;6136;47.032;15.398;2023-02-02T11:38:31;1.87;;;1.60;;
12145;SDS011;6136;47.032;15.398;2023-02-02T11:41:00;2.57;;;1.60;;
12145;SDS011;6136;47.032;15.398;2023-02-02T11:43:32;2.20;;;1.70;;
12145;SDS011;6136;47.032;15.398;2023-02-02T11:46:12;2.83;;;1.97;;
12145;SDS011;6136;47.032;15.398;2023-02-02T11:48:46;1.73;;;1.63;;
12145;SDS011;6136;47.032;15.398;2023-02-02T11:51:20;2.13;;;1.93;;
12145;SDS011;6136;47.032;15.398;2023-02-02T11:53:59;1.87;;;1.77;;
12145;SDS011;6136;47.032;15.398;2023-02-02T11:56:30;2.47;;;1.70;;
12145;SDS011;6136;47.032;15.398;2023-02-02T11:59:02;1.53;;;1.43;;
12145;SDS011;6136;47.032;15.398;2023-02-02T12:01:32;2.10;;;1.80;;
12145;SDS011;6136;47.032;15.398;2023-02-02T12:04:02;2.17;;;1.87;;
12145;SDS011;6136;47.032;15.398;2023-02-02T12:06:48;2.33;;;1.97;;
12145;SDS011;6136;47.032;15.398;2023-02-02T12:09:17;2.87;;;1.80;;
12145;SDS011;6136;47.032;15.398;2023-02-02T12:11:51;1.60;;;1.50;;
12145;SDS011;6136;47.032;15.398;2023-02-02T12:14:32;1.83;;;1.73;;
12145;SDS011;6136;47.032;15.398;2023-02-02T12:17:12;2.33;;;2.13;;
12145;SDS011;6136;47.032;15.398;2023-02-02T12:20:01;2.97;;;2.17;;
12145;SDS011;6136;47.032;15.398;2023-02-02T12:22:44;3.33;;;2.53;;
12145;SDS011;6136;47.032;15.398;2023-02-02T12:25:35;2.30;;;2.10;;
12145;SDS011;6136;47.032;15.398;2023-02-02T12:28:14;6.33;;;2.70;;
12145;SDS011;6136;47.032;15.398;2023-02-02T12:30:56;2.47;;;2.27;;
12145;SDS011;6136;47.032;15.398;2023-02-02T12:33:30;7.13;;;2.57;;
12145;SDS011;6136;47.032;15.398;2023-02-02T12:36:18;3.37;;;2.67;;
12145;SDS011;6136;47.032;15.398;2023-02-02T12:39:03;3.00;;;2.70;;
12145;SDS011;6136;47.032;15.398;2023-02-02T12:45:02;2.80;;;2.50;;
12145;SDS011;6136;47.032;15.398;2023-02-02T12:47:54;3.63;;;2.57;;
12145;SDS011;6136;47.032;15.398;2023-02-02T12:50:38;3.03;;;2.50;;
12145;SDS011;6136;47.032;15.398;2023-02-02T12:53:27;3.63;;;2.60;;
12145;SDS011;6136;47.032;15.398;2023-02-02T12:56:07;3.53;;;2.50;;
12145;SDS011;6136;47.032;15.398;2023-02-02T12:58:48;3.27;;;2.37;;
12145;SDS011;6136;47.032;15.398;2023-02-02T13:01:28;2.83;;;2.63;;
12145;SDS011;6136;47.032;15.398;2023-02-02T13:07:26;4.90;;;3.40;;
12145;SDS011;6136;47.032;15.398;2023-02-02T13:10:05;4.60;;;2.60;;
12145;SDS011;6136;47.032;15.398;2023-02-02T13:12:39;5.67;;;2.57;;
12145;SDS011;6136;47.032;15.398;2023-02-02T13:15:12;2.90;;;2.60;;
12145;SDS011;6136;47.032;15.398;2023-02-02T13:17:50;2.67;;;2.40;;
12145;SDS011;6136;47.032;15.398;2023-02-02T13:20:24;3.33;;;2.80;;
12145;SDS011;6136;47.032;15.398;2023-02-02T13:23:02;3.10;;;2.53;;
12145;SDS011;6136;47.032;15.398;2023-02-02T13:25:36;2.53;;;2.33;;
12145;SDS011;6136;47.032;15.398;2023-02-02T13:28:14;3.53;;;2.37;;
12145;SDS011;6136;47.032;15.398;2023-02-02T13:30:48;2.97;;;2.63;;
12145;SDS011;6136;47.032;15.398;2023-02-02T13:33:20;2.10;;;2.00;;
12145;SDS011;6136;47.032;15.398;2023-02-02T13:35:54;3.60;;;2.60;;
12145;SDS011;6136;47.032;15.398;2023-02-02T13:38:25;2.60;;;2.40;;
12145;SDS011;6136;47.032;15.398;2023-02-02T13:40:56;2.20;;;2.00;;
12145;SDS011;6136;47.032;15.398;2023-02-02T13:43:33;2.40;;;2.10;;
12145;SDS011;6136;47.032;15.398;2023-02-02T13:46:10;3.90;;;2.73;;
12145;SDS011;6136;47.032;15.398;2023-02-02T13:48:52;3.40;;;3.10;;
12145;SDS011;6136;47.032;15.398;2023-02-02T13:51:33;3.30;;;2.83;;
12145;SDS011;6136;47.032;15.398;2023-02-02T13:54:18;5.07;;;2.60;;
12145;SDS011;6136;47.032;15.398;2023-02-02T13:57:08;3.00;;;2.70;;
12145;SDS011;6136;47.032;15.398;2023-02-02T13:59:51;5.37;;;3.60;;
12145;SDS011;6136;47.032;15.398;2023-02-02T14:02:25;4.40;;;3.03;;
12145;SDS011;6136;47.032;15.398;2023-02-02T14:05:00;3.00;;;2.70;;
12145;SDS011;6136;47.032;15.398;2023-02-02T14:07:36;4.13;;;3.30;;
12145;SDS011;6136;47.032;15.398;2023-02-02T14:10:19;3.70;;;3.30;;
12145;SDS011;6136;47.032;15.398;2023-02-02T14:12:50;4.60;;;3.47;;
12145;SDS011;6136;47.032;15.398;2023-02-02T14:15:26;4.57;;;3.30;;
12145;SDS011;6136;47.032;15.398;2023-02-02T14:18:03;4.10;;;3.73;;
12145;SDS011;6136;47.032;15.398;2023-02-02T14:20:39;3.90;;;3.60;;
12145;SDS011;6136;47.032;15.398;2023-02-02T14:26:39;8.37;;;4.53;;
12145;SDS011;6136;47.032;15.398;2023-02-02T14:35:00;4.40;;;4.00;;
12145;SDS011;6136;47.032;15.398;2023-02-02T14:38:07;5.13;;;3.83;;
12145;SDS011;6136;47.032;15.398;2023-02-02T14:40:46;4.30;;;3.40;;
12145;SDS011;6136;47.032;15.398;2023-02-02T14:43:23;4.50;;;3.27;;
12145;SDS011;6136;47.032;15.398;2023-02-02T14:46:19;12.10;;;7.13;;
12145;SDS011;6136;47.032;15.398;2023-02-02T14:51:43;37.27;;;19.30;;
12145;SDS011;6136;47.032;15.398;2023-02-02T14:54:17;35.27;;;15.60;;
12145;SDS011;6136;47.032;15.398;2023-02-02T14:57:03;10.83;;;6.30;;
12145;SDS011;6136;47.032;15.398;2023-02-02T14:59:46;3.27;;;2.97;;
12145;SDS011;6136;47.032;15.398;2023-02-02T15:02:16;3.33;;;2.67;;
12145;SDS011;6136;47.032;15.398;2023-02-02T15:04:47;9.57;;;7.47;;
12145;SDS011;6136;47.032;15.398;2023-02-02T15:13:50;5.10;;;4.33;;
12145;SDS011;6136;47.032;15.398;2023-02-02T15:16:24;4.20;;;3.80;;
12145;SDS011;6136;47.032;15.398;2023-02-02T15:18:58;4.67;;;3.63;;
12145;SDS011;6136;47.032;15.398;2023-02-02T15:21:33;7.33;;;4.73;;
12145;SDS011;6136;47.032;15.398;2023-02-02T15:24:12;3.90;;;3.50;;
12145;SDS011;6136;47.032;15.398;2023-02-02T15:26:46;5.50;;;3.73;;
12145;SDS011;6136;47.032;15.398;2023-02-02T15:29:18;2.90;;;2.63;;
12145;SDS011;6136;47.032;15.398;2023-02-02T15:31:54;9.13;;;6.10;;
12145;SDS011;6136;47.032;15.398;2023-02-02T15:34:24;3.77;;;2.60;;
12145;SDS011;6136;47.032;15.398;2023-02-02T15:37:06;5.07;;;3.40;;
12145;SDS011;6136;47.032;15.398;2023-02-02T15:39:42;3.30;;;3.00;;
12145;SDS011;6136;47.032;15.398;2023-02-02T15:42:15;2.70;;;2.50;;
12145;SDS011;6136;47.032;15.398;2023-02-02T15:45:24;3.07;;;2.60;;
12145;SDS011;6136;47.032;15.398;2023-02-02T15:47:57;11.30;;;8.77;;
12145;SDS011;6136;47.032;15.398;2023-02-02T15:50:27;6.00;;;5.50;;
12145;SDS011;6136;47.032;15.398;2023-02-02T15:52:55;5.77;;;3.03;;
12145;SDS011;6136;47.032;15.398;2023-02-02T15:55:27;4.57;;;2.90;;